Huron, Ohio
Current Conditions -  °F | °C
As of 7:33 AM on Friday 28 Nov 2014 (Local Time) from KPCW Reporting Station
Few Clouds Few Clouds  
Wind Chill:   Ceiling: Unl
Heat Index: 19°   Visibility: 10mi
Dew Point: 10°   Wind: 8mph
Humidity: 68%   Direction: 230°SW
Pressure: 30.36"   Gusts: NA
Location:  41.39°N, 82.56°W
Report Text: KPCW 281233Z AUTO 23007KT 10SM FEW038 M07/M12 A3036 RMK AO2 $
Loading
Personal Weather Stations






























Interactive Weather Map New forecast layout! Learn more

10-Day Weather Forecast

Advertisements
Track Severe Weather on mobile